Time;durP1;ratioP1;P1;durP2;ratioP2;P2;SDS_P1;SDS_P2;PMS_P1;PMS_P2;Temp;Humidity;BMP_temperature;BMP_pressure;BME280_temperature;BME280_humidity;BME280_pressure;Samples;Min_cycle;Max_cycle;Signal;HPM_P1;HPM_P2
2021/11/01 00:01:44;;;;;;;39.75;22.50;;;;;;;4.81;62.42;95576.03;5033618;28;20492;-74
2021/11/01 00:04:09;;;;;;;39.05;21.60;;;;;;;4.86;62.55;95578.28;5038733;28;20086;-72
2021/11/01 00:06:35;;;;;;;41.38;21.88;;;;;;;4.62;62.81;95579.50;5044917;28;20029;-73
2021/11/01 00:09:00;;;;;;;41.55;22.02;;;;;;;4.65;62.55;95577.41;5044113;28;20462;-72
2021/11/01 00:11:26;;;;;;;42.03;22.17;;;;;;;4.53;63.03;95584.63;5045727;28;20100;-72
2021/11/01 00:13:51;;;;;;;41.97;21.98;;;;;;;4.52;63.05;95584.78;5034159;28;20160;-73
2021/11/01 00:16:16;;;;;;;40.13;22.30;;;;;;;4.51;63.64;95580.44;5037469;28;20114;-72
2021/11/01 00:18:42;;;;;;;39.95;22.25;;;;;;;4.38;64.73;95581.53;5046229;28;20033;-72
2021/11/01 00:21:08;;;;;;;38.97;20.83;;;;;;;4.46;63.94;95578.19;5040241;28;20021;-71
2021/11/01 00:23:33;;;;;;;37.33;19.70;;;;;;;4.35;64.59;95580.97;5044394;28;20021;-72
2021/11/01 00:25:59;;;;;;;35.97;20.25;;;;;;;4.30;64.57;95571.59;5007799;28;20068;-73
2021/11/01 00:28:24;;;;;;;36.35;20.40;;;;;;;4.36;64.53;95577.31;5014240;28;20091;-72
2021/11/01 00:30:50;;;;;;;36.72;20.92;;;;;;;4.33;64.66;95573.97;5029780;28;20095;-73
2021/11/01 00:33:15;;;;;;;40.47;20.52;;;;;;;4.28;65.07;95570.03;5028333;28;20086;-73
2021/11/01 00:35:41;;;;;;;39.88;20.10;;;;;;;4.17;65.13;95566.50;5026889;28;20055;-73
2021/11/01 00:38:06;;;;;;;43.20;21.95;;;;;;;4.01;65.63;95569.66;5046090;28;20055;-73
2021/11/01 00:40:32;;;;;;;40.22;20.85;;;;;;;4.03;66.32;95570.34;5046231;28;20025;-73
2021/11/01 00:42:58;;;;;;;36.70;20.45;;;;;;;3.94;66.75;95565.84;5045472;28;20079;-73
2021/11/01 00:45:24;;;;;;;40.42;20.77;;;;;;;3.84;66.48;95563.13;5043457;28;20430;-73
2021/11/01 00:47:49;;;;;;;37.85;20.27;;;;;;;3.77;67.04;95562.81;5045647;28;20025;-73
2021/11/01 00:50:15;;;;;;;38.45;20.98;;;;;;;3.77;67.06;95554.03;5038095;28;20033;-72
2021/11/01 00:52:41;;;;;;;40.45;20.38;;;;;;;3.92;67.04;95554.50;5012668;28;20039;-72
2021/11/01 00:55:10;;;;;;;44.17;21.13;;;;;;;3.97;66.93;95551.47;5043198;28;20108;-73
2021/11/01 00:57:36;;;;;;;38.70;22.13;;;;;;;3.95;67.17;95546.28;5044348;28;20078;-74
2021/11/01 01:00:01;;;;;;;50.55;21.35;;;;;;;3.87;67.81;95546.94;5042882;28;20036;-73
2021/11/01 01:02:31;;;;;;;42.67;21.80;;;;;;;3.83;68.50;95538.44;5037502;28;20017;-73
2021/11/01 01:04:57;;;;;;;39.17;21.13;;;;;;;3.86;68.83;95541.78;5042484;28;20028;-73
2021/11/01 01:07:22;;;;;;;38.78;22.50;;;;;;;3.85;69.43;95535.66;5036002;28;20094;-73
2021/11/01 01:09:49;;;;;;;40.25;21.05;;;;;;;3.79;69.52;95534.34;5040770;28;20170;-73
2021/11/01 01:12:15;;;;;;;39.90;21.42;;;;;;;3.82;68.78;95534.09;5031511;28;20082;-74
2021/11/01 01:14:47;;;;;;;42.20;21.25;;;;;;;3.86;68.06;95531.16;5033386;28;20075;-72
2021/11/01 01:17:13;;;;;;;46.45;23.20;;;;;;;3.94;68.49;95518.91;5031954;28;20038;-72
2021/11/01 01:19:51;;;;;;;39.08;22.20;;;;;;;3.91;67.49;95515.69;5030384;28;20622;-71
2021/11/01 01:22:24;;;;;;;44.08;22.80;;;;;;;3.94;67.75;95512.75;5031420;28;20028;-72
2021/11/01 01:24:50;;;;;;;40.85;22.90;;;;;;;3.93;66.14;95508.44;5024361;28;20061;-72
2021/11/01 01:27:15;;;;;;;46.15;23.45;;;;;;;3.90;66.15;95514.03;5023610;28;20087;-72
2021/11/01 01:29:41;;;;;;;42.63;21.85;;;;;;;3.80;64.54;95504.22;5022937;28;20088;-72
2021/11/01 01:32:07;;;;;;;43.28;20.92;;;;;;;3.75;65.21;95510.88;5024564;28;20034;-72
2021/11/01 01:34:32;;;;;;;41.55;21.27;;;;;;;3.66;64.47;95508.03;5022888;28;20484;-72
2021/11/01 01:36:58;;;;;;;37.70;20.33;;;;;;;3.55;64.49;95500.16;5022922;28;20303;-73
2021/11/01 01:39:24;;;;;;;36.47;21.10;;;;;;;3.53;65.66;95496.81;5024096;28;20026;-72
2021/11/01 01:41:49;;;;;;;33.50;19.92;;;;;;;3.53;65.49;95496.81;5026353;28;20538;-72
2021/11/01 01:44:15;;;;;;;40.92;20.10;;;;;;;3.55;65.88;95487.75;5028246;28;20021;-72
2021/11/01 01:46:40;;;;;;;30.92;18.75;;;;;;;3.53;65.43;95484.38;5028708;28;20486;-72
2021/11/01 01:49:06;;;;;;;36.20;19.52;;;;;;;3.44;65.01;95491.31;5028178;28;20022;-72
2021/11/01 01:51:31;;;;;;;31.90;18.52;;;;;;;3.37;64.90;95494.63;5028320;28;20052;-73
2021/11/01 01:53:57;;;;;;;38.92;18.45;;;;;;;3.43;65.03;95491.47;5029514;28;20026;-73
2021/11/01 01:56:23;;;;;;;31.67;18.30;;;;;;;3.46;64.42;95489.38;5011449;28;20029;-73
2021/11/01 01:58:54;;;;;;;33.50;18.75;;;;;;;3.54;64.18;95487.88;5029813;28;20040;-72
2021/11/01 02:01:20;;;;;;;37.85;17.70;;;;;;;3.54;64.15;95483.41;5029156;28;20577;-72
2021/11/01 02:03:48;;;;;;;41.75;19.75;;;;;;;3.42;64.58;95479.16;5029700;28;20025;-72
2021/11/01 02:06:32;;;;;;;33.03;18.92;;;;;;;3.41;64.43;95485.44;5027837;28;20459;-72
2021/11/01 02:09:12;;;;;;;34.95;18.00;;;;;;;3.37;64.83;95476.06;5029670;28;20469;-72
2021/11/01 02:11:58;;;;;;;33.75;18.50;;;;;;;3.29;65.13;95479.38;5029195;28;20049;-73
2021/11/01 02:14:26;;;;;;;33.78;18.60;;;;;;;3.22;64.82;95477.22;5027742;28;20500;-74
2021/11/01 02:16:52;;;;;;;34.25;18.90;;;;;;;3.25;64.70;95477.94;5027835;28;20115;-73
2021/11/01 02:19:19;;;;;;;34.58;17.85;;;;;;;3.11;65.10;95474.66;5027703;28;20431;-72
2021/11/01 02:21:54;;;;;;;35.70;19.08;;;;;;;3.11;64.87;95479.13;5027828;28;20491;-72
2021/11/01 02:24:29;;;;;;;36.72;19.10;;;;;;;3.07;66.34;95476.72;5027713;28;20041;-73
2021/11/01 02:26:54;;;;;;;39.50;18.58;;;;;;;2.98;66.42;95477.50;5028713;28;20061;-72
2021/11/01 02:29:20;;;;;;;38.22;19.08;;;;;;;2.92;66.70;95476.19;5027836;28;20032;-72
2021/11/01 02:31:46;;;;;;;36.33;19.08;;;;;;;3.06;66.81;95482.97;5010862;28;20025;-72
2021/11/01 02:34:11;;;;;;;37.75;19.25;;;;;;;3.02;67.06;95486.88;5027892;28;20094;-73
2021/11/01 02:36:37;;;;;;;34.92;18.50;;;;;;;3.16;65.60;95487.53;5027199;28;20025;-72
2021/11/01 02:39:02;;;;;;;34.72;19.25;;;;;;;3.14;65.95;95484.16;5027708;28;20021;-72
2021/11/01 02:41:31;;;;;;;33.22;18.70;;;;;;;3.18;66.06;95483.78;5011113;28;20022;-72
2021/11/01 02:44:01;;;;;;;31.77;18.45;;;;;;;3.11;66.37;95487.06;5027214;28;20041;-73
2021/11/01 02:46:27;;;;;;;37.03;19.92;;;;;;;3.18;65.57;95482.91;5028764;28;20025;-73
2021/11/01 02:48:52;;;;;;;34.45;18.98;;;;;;;3.19;65.13;95481.97;5027025;28;20079;-72
2021/11/01 02:51:19;;;;;;;38.03;19.42;;;;;;;3.17;64.95;95478.59;5027478;28;20040;-73
2021/11/01 02:53:45;;;;;;;37.75;19.67;;;;;;;3.03;65.59;95480.59;5027416;28;20416;-72
2021/11/01 02:56:11;;;;;;;33.08;18.95;;;;;;;3.03;65.66;95477.13;5026990;28;20408;-72
2021/11/01 02:58:39;;;;;;;40.20;19.70;;;;;;;3.05;65.82;95473.38;5028042;28;20083;-72
2021/11/01 03:01:05;;;;;;;39.25;20.23;;;;;;;3.04;66.74;95465.53;5027146;28;20515;-73
2021/11/01 03:03:31;;;;;;;41.97;20.00;;;;;;;3.02;66.39;95465.69;5027187;28;20071;-72
2021/11/01 03:05:57;;;;;;;35.92;18.05;;;;;;;3.00;67.40;95469.44;5026623;28;20030;-72
2021/11/01 03:08:22;;;;;;;39.78;19.40;;;;;;;3.00;67.89;95470.25;5026957;28;20419;-73
2021/11/01 03:10:52;;;;;;;38.45;19.50;;;;;;;2.98;67.86;95469.56;5010028;28;20514;-73
2021/11/01 03:13:18;;;;;;;38.05;20.20;;;;;;;2.97;67.46;95466.06;5027102;28;20023;-72
2021/11/01 03:15:43;;;;;;;36.95;19.48;;;;;;;2.96;68.53;95468.84;5026551;28;20026;-73
2021/11/01 03:18:09;;;;;;;44.20;20.52;;;;;;;2.99;67.77;95467.72;5026775;28;20049;-72
2021/11/01 03:20:42;;;;;;;48.42;21.13;;;;;;;2.93;69.52;95463.81;5028046;28;20063;-73
2021/11/01 03:23:29;;;;;;;38.17;20.92;;;;;;;2.96;68.89;95472.34;5026519;28;20048;-73
2021/11/01 03:26:05;;;;;;;38.17;19.15;;;;;;;2.97;67.60;95460.75;5026446;28;20404;-72
2021/11/01 03:28:31;;;;;;;39.42;18.83;;;;;;;2.93;66.38;95454.06;5026299;28;20049;-73
2021/11/01 03:30:58;;;;;;;40.33;20.83;;;;;;;2.89;66.49;95459.72;5026581;28;20040;-73
2021/11/01 03:33:24;;;;;;;34.95;19.55;;;;;;;3.06;66.41;95456.47;5026369;28;20029;-73
2021/11/01 03:35:50;;;;;;;34.83;19.23;;;;;;;3.04;65.40;95458.44;5026327;28;20052;-73
2021/11/01 03:38:15;;;;;;;40.90;19.40;;;;;;;3.04;65.18;95457.59;5026507;28;20437;-72
2021/11/01 03:40:43;;;;;;;35.92;20.05;;;;;;;2.96;64.85;95452.94;5026345;28;20447;-72
2021/11/01 03:43:09;;;;;;;33.65;18.55;;;;;;;2.89;65.62;95457.91;5027522;28;20029;-72
2021/11/01 03:45:35;;;;;;;33.78;18.30;;;;;;;2.88;65.30;95458.91;5026246;28;20030;-72
2021/11/01 03:48:03;;;;;;;32.67;17.50;;;;;;;2.86;65.68;95462.63;5027841;28;20029;-72
2021/11/01 03:50:42;;;;;;;33.75;18.25;;;;;;;2.85;65.31;95453.84;5027220;28;20033;-73
2021/11/01 03:53:07;;;;;;;31.63;17.30;;;;;;;2.94;65.00;95445.13;5025891;28;20021;-72
2021/11/01 03:55:33;;;;;;;33.80;18.25;;;;;;;2.86;65.15;95452.03;5027097;28;20036;-72
2021/11/01 03:57:59;;;;;;;33.28;17.80;;;;;;;2.83;65.75;95448.69;5025660;28;20188;-72
2021/11/01 04:00:28;;;;;;;34.75;18.05;;;;;;;2.78;65.57;95447.38;5027431;28;20036;-72
2021/11/01 04:02:54;;;;;;;34.38;18.17;;;;;;;2.73;65.96;95447.75;5025687;28;20044;-72
2021/11/01 04:05:20;;;;;;;40.22;18.10;;;;;;;2.77;65.55;95438.59;5024981;28;20048;-72
2021/11/01 04:07:45;;;;;;;32.28;17.58;;;;;;;2.67;65.58;95451.78;5025459;28;20028;-72
2021/11/01 04:10:11;;;;;;;33.78;17.92;;;;;;;2.61;65.33;95439.03;5040989;28;20044;-72
2021/11/01 04:12:37;;;;;;;32.70;18.13;;;;;;;2.68;65.07;95439.34;5046862;28;20029;-72
2021/11/01 04:15:11;;;;;;;35.22;18.33;;;;;;;2.66;65.76;95447.41;5028753;28;20039;-72
2021/11/01 04:17:46;;;;;;;36.38;17.58;;;;;;;2.64;65.44;95448.53;5045624;28;20056;-72
2021/11/01 04:22:43;;;;;;;32.75;17.23;;;;;;;2.56;65.70;95443.88;5047142;28;20052;-72
2021/11/01 04:25:09;;;;;;;38.47;19.58;;;;;;;2.60;66.46;95442.63;5028717;28;20430;-73
2021/11/01 04:27:35;;;;;;;41.08;19.77;;;;;;;2.58;66.41;95431.31;5028809;28;20059;-72
2021/11/01 04:30:01;;;;;;;34.47;18.55;;;;;;;2.62;66.05;95434.56;5046604;28;20040;-72
2021/11/01 04:32:35;;;;;;;35.83;17.83;;;;;;;2.67;66.20;95427.09;5045167;28;20029;-72
2021/11/01 04:37:36;;;;;;;31.85;17.58;;;;;;;2.68;66.74;95428.75;5045340;28;20037;-73
2021/11/01 04:53:05;;;;;;;33.45;17.95;;;;;;;2.57;67.13;95417.25;5046511;28;20498;-72
2021/11/01 04:55:31;;;;;;;39.00;22.50;;;;;;;2.54;68.24;95416.66;5045195;28;20033;-73
2021/11/01 04:57:57;;;;;;;36.63;19.95;;;;;;;2.54;68.00;95417.53;5045975;28;20059;-73
2021/11/01 05:00:23;;;;;;;39.40;19.23;;;;;;;2.43;68.26;95423.72;5044817;28;20029;-72
2021/11/01 05:02:57;;;;;;;39.50;19.48;;;;;;;2.41;67.92;95417.69;5045870;28;20048;-73
2021/11/01 05:05:23;;;;;;;47.55;19.10;;;;;;;2.49;67.50;95425.00;5044824;28;20040;-72
2021/11/01 05:07:49;;;;;;;35.17;18.60;;;;;;;2.46;66.80;95433.19;5044486;28;20033;-72
2021/11/01 05:10:24;;;;;;;35.03;19.98;;;;;;;2.54;66.20;95438.72;5039141;28;20630;-72
2021/11/01 05:12:50;;;;;;;38.83;19.38;;;;;;;2.56;66.56;95433.28;5032315;28;20063;-73
2021/11/01 05:18:00;;;;;;;51.15;25.30;;;;;;;2.52;64.42;95426.53;5038609;28;20048;-72
2021/11/01 05:20:36;;;;;;;41.95;21.63;;;;;;;2.61;64.13;95427.59;5040488;28;20475;-72
2021/11/01 05:23:14;;;;;;;40.97;20.77;;;;;;;2.47;64.11;95433.06;5019131;28;20068;-73
2021/11/01 05:36:02;;;;;;;42.20;21.35;;;;;;;2.28;65.55;95425.81;5044154;28;20565;-73
2021/11/01 05:38:27;;;;;;;42.65;21.33;;;;;;;2.35;66.24;95434.09;5029990;28;20105;-74
2021/11/01 05:40:52;;;;;;;38.13;20.20;;;;;;;2.35;65.75;95437.56;5042120;28;20476;-73
2021/11/01 05:43:18;;;;;;;40.50;21.02;;;;;;;2.39;65.66;95437.31;5044985;28;20044;-73
2021/11/01 05:45:43;;;;;;;39.55;19.88;;;;;;;2.42;65.65;95442.38;5038262;28;20654;-72
2021/11/01 05:48:09;;;;;;;36.40;19.73;;;;;;;2.47;65.27;95440.16;5040122;28;20160;-73
2021/11/01 05:50:36;;;;;;;40.22;20.58;;;;;;;2.50;66.06;95453.16;5038967;28;20413;-72
2021/11/01 05:53:04;;;;;;;39.00;19.88;;;;;;;2.72;64.97;95452.19;5033686;28;20502;-73
2021/11/01 05:55:44;;;;;;;45.20;22.50;;;;;;;2.72;65.38;95446.09;5047646;28;20060;-73
2021/11/01 06:01:11;;;;;;;52.05;25.02;;;;;;;2.63;66.38;95450.31;5042003;28;20056;-72
2021/11/01 06:03:41;;;;;;;60.78;26.08;;;;;;;2.65;66.74;95450.19;5045344;28;20029;-73
2021/11/01 06:09:16;;;;;;;60.70;29.00;;;;;;;2.74;66.34;95451.25;5036941;28;20039;-72
2021/11/01 06:14:27;;;;;;;59.13;26.20;;;;;;;2.97;65.84;95462.56;5048774;28;20125;-72
2021/11/01 06:16:53;;;;;;;49.38;24.48;;;;;;;2.87;67.12;95459.03;5045243;28;20556;-73
2021/11/01 06:19:18;;;;;;;55.85;25.42;;;;;;;2.95;67.23;95449.44;5021803;28;20036;-74
2021/11/01 06:21:47;;;;;;;50.67;24.92;;;;;;;3.12;67.22;95460.44;5042566;28;20026;-73
2021/11/01 06:24:44;;;;;;;49.97;24.45;;;;;;;3.17;67.18;95460.91;5044809;28;20110;-74
2021/11/01 06:27:01;;;;;;;49.00;24.70;;;;;;;3.24;67.77;95452.41;5038369;28;20037;-74
2021/11/01 06:29:34;;;;;;;48.92;25.42;;;;;;;3.37;67.26;95457.50;5037519;28;20029;-74
2021/11/01 06:32:46;;;;;;;52.95;24.30;;;;;;;3.31;68.09;95446.47;5037962;28;20145;-73
2021/11/01 06:43:04;;;;;;;49.70;22.77;;;;;;;3.71;67.89;95443.97;5036666;28;20036;-74
2021/11/01 06:51:02;;;;;;;44.67;23.77;;;;;;;4.16;67.38;95444.53;5039344;28;20032;-74
2021/11/01 06:53:53;;;;;;;50.08;24.38;;;;;;;4.30;67.05;95444.13;5037681;28;20418;-73
2021/11/01 06:58:52;;;;;;;48.78;24.10;;;;;;;4.54;67.34;95448.22;5039122;28;20039;-73
2021/11/01 07:25:37;;;;;;;45.40;24.98;;;;;;;5.66;67.68;95431.78;5040111;28;20083;-73
2021/11/01 07:38:33;;;;;;;52.55;27.63;;;;;;;6.42;68.57;95420.16;5022930;28;20553;-76
2021/11/01 08:44:49;;;;;;;38.55;21.30;;;;;;;9.09;64.33;95384.00;5020876;28;20047;-75
2021/11/01 09:03:27;;;;;;;33.55;19.13;;;;;;;9.65;61.88;95353.75;5038247;28;20031;-75
2021/11/01 09:25:02;;;;;;;30.15;17.45;;;;;;;10.10;60.59;95339.81;5002705;28;20080;-75
2021/11/01 09:27:30;;;;;;;26.05;16.48;;;;;;;10.14;60.34;95338.44;5029022;28;20029;-75
2021/11/01 09:30:07;;;;;;;28.73;18.15;;;;;;;10.19;60.08;95322.66;5041461;28;20021;-74
2021/11/01 09:38:18;;;;;;;36.63;18.88;;;;;;;10.24;60.73;95319.44;5027344;28;20071;-75
2021/11/01 09:40:56;;;;;;;32.72;19.70;;;;;;;10.30;60.13;95320.59;5037601;28;20100;-74
2021/11/01 09:43:23;;;;;;;30.55;18.70;;;;;;;10.43;59.69;95317.31;5032609;28;20036;-73
2021/11/01 09:45:48;;;;;;;35.85;19.42;;;;;;;10.23;60.23;95313.28;5037192;28;20416;-73
2021/11/01 09:48:14;;;;;;;30.02;17.48;;;;;;;10.33;59.68;95304.16;5020806;28;20033;-75
2021/11/01 09:50:40;;;;;;;30.33;17.98;;;;;;;10.35;59.19;95304.81;5044943;28;20025;-74
2021/11/01 09:53:16;;;;;;;27.17;16.60;;;;;;;10.49;59.00;95300.53;5034360;28;20397;-73
2021/11/01 09:55:49;;;;;;;32.40;17.90;;;;;;;10.58;58.14;95293.25;5039093;28;20388;-74
2021/11/01 10:01:02;;;;;;;30.48;19.20;;;;;;;10.64;58.79;95289.84;5038306;28;20040;-73
2021/11/01 10:03:39;;;;;;;33.28;19.50;;;;;;;10.73;58.50;95291.47;5042869;28;20025;-74
2021/11/01 10:06:05;;;;;;;37.25;20.58;;;;;;;10.81;57.97;95279.81;5046213;28;20089;-74
2021/11/01 10:08:31;;;;;;;35.10;19.98;;;;;;;10.82;57.61;95278.78;5039660;28;20063;-73
2021/11/01 10:10:57;;;;;;;35.00;19.50;;;;;;;10.87;57.50;95272.88;5039004;28;20029;-74
2021/11/01 10:13:25;;;;;;;33.40;20.08;;;;;;;11.03;57.24;95276.44;5046264;28;20017;-74
2021/11/01 10:18:46;;;;;;;35.38;21.08;;;;;;;11.02;56.50;95264.84;5037420;28;21344;-74
2021/11/01 10:21:12;;;;;;;34.28;20.08;;;;;;;11.06;56.67;95257.28;5043469;28;20043;-75
2021/11/01 10:23:55;;;;;;;37.85;21.00;;;;;;;11.12;57.14;95253.84;5037673;28;20037;-73
2021/11/01 10:26:21;;;;;;;;;;;;;;;11.25;56.94;95245.97;5023491;28;20036;-75
2021/11/01 10:28:47;;;;;;;33.47;19.67;;;;;;;11.34;56.09;95245.88;5036804;28;19925;-74
2021/11/01 10:31:16;;;;;;;32.20;20.38;;;;;;;11.48;56.24;95238.81;5040881;28;20127;-73
2021/11/01 10:33:45;;;;;;;34.83;19.77;;;;;;;11.64;56.66;95236.94;5040426;28;20032;-74
2021/11/01 10:36:31;;;;;;;37.17;20.98;;;;;;;11.62;55.57;95237.13;5039091;28;20063;-74
2021/11/01 10:39:00;;;;;;;35.33;21.17;;;;;;;11.65;55.96;95236.75;5035629;28;20059;-74
2021/11/01 10:41:38;;;;;;;33.65;20.33;;;;;;;11.75;55.26;95225.72;5041432;28;20087;-76
2021/11/01 11:11:43;;;;;;;30.38;19.23;;;;;;;12.61;53.69;95169.41;5040885;28;20040;-75
2021/11/01 11:32:52;;;;;;;33.83;20.33;;;;;;;13.10;51.60;95156.03;5028265;28;20037;-75
2021/11/01 11:49:08;;;;;;;37.10;19.95;;;;;;;13.57;51.21;95132.00;5031967;28;20060;-81
2021/11/01 11:51:33;;;;;;;30.85;18.85;;;;;;;13.67;50.92;95131.59;5036309;28;20021;-78
2021/11/01 11:54:00;;;;;;;32.90;19.63;;;;;;;13.81;50.13;95123.56;5035483;28;20028;-78
2021/11/01 11:56:36;;;;;;;32.00;19.13;;;;;;;13.99;49.75;95122.13;5020159;28;20021;-78
2021/11/01 11:59:04;;;;;;;33.63;19.48;;;;;;;14.11;49.05;95123.16;5037921;28;20076;-79
2021/11/01 12:01:35;;;;;;;25.08;17.73;;;;;;;14.17;48.52;95110.72;5038507;28;20060;-79
2021/11/01 12:04:06;;;;;;;28.15;18.55;;;;;;;14.20;47.98;95111.13;5034014;28;20659;-78
2021/11/01 12:06:45;;;;;;;33.50;18.60;;;;;;;14.26;48.70;95108.66;5034025;28;20416;-78
2021/11/01 12:09:14;;;;;;;29.45;18.58;;;;;;;14.36;48.19;95109.06;5036357;28;20052;-78
2021/11/01 12:12:10;;;;;;;27.80;18.17;;;;;;;14.41;47.82;95108.44;5033479;28;20554;-77
2021/11/01 12:17:27;;;;;;;29.17;17.98;;;;;;;14.44;47.76;95102.63;5039164;28;20116;-78
2021/11/01 12:19:53;;;;;;;28.70;18.48;;;;;;;14.38;47.52;95098.88;5039494;28;20445;-78
2021/11/01 12:22:26;;;;;;;28.60;18.50;;;;;;;14.56;48.53;95097.41;5039847;28;20032;-78
2021/11/01 12:24:54;;;;;;;29.90;17.48;;;;;;;14.67;47.46;95088.66;5041833;28;20388;-77
2021/11/01 12:27:21;;;;;;;31.70;18.85;;;;;;;14.70;46.76;95082.84;5018470;28;20026;-78
2021/11/01 12:29:48;;;;;;;27.50;17.70;;;;;;;14.76;48.05;95083.88;5024817;28;20120;-78
2021/11/01 12:32:14;;;;;;;26.90;18.15;;;;;;;14.71;46.47;95080.97;5034372;28;20034;-79
2021/11/01 12:35:00;;;;;;;26.35;18.48;;;;;;;14.79;46.46;95085.31;5024706;28;20031;-78
2021/11/01 12:37:31;;;;;;;27.42;18.25;;;;;;;14.79;45.90;95082.59;5035878;28;20022;-78
2021/11/01 12:40:02;;;;;;;27.73;17.38;;;;;;;14.92;46.79;95071.81;5041687;28;20029;-79
2021/11/01 12:42:37;;;;;;;39.03;17.95;;;;;;;15.10;45.99;95069.44;5040249;28;20041;-77
2021/11/01 12:58:48;;;;;;;33.15;19.15;;;;;;;15.55;45.30;95057.78;5038721;28;20498;-79
2021/11/01 13:01:16;;;;;;;28.48;17.13;;;;;;;15.71;44.33;95056.44;5041385;28;20120;-78
2021/11/01 13:04:24;;;;;;;27.25;17.02;;;;;;;15.69;43.58;95062.06;5035012;28;20116;-77
2021/11/01 13:07:03;;;;;;;24.73;16.98;;;;;;;15.90;44.19;95053.78;5032234;28;20041;-78
2021/11/01 13:09:33;;;;;;;26.83;17.58;;;;;;;15.99;43.86;95046.28;5037965;28;20029;-83
2021/11/01 13:19:46;;;;;;;25.27;16.50;;;;;;;16.10;43.80;95033.91;5035660;28;20039;-78
2021/11/01 13:22:16;;;;;;;26.67;15.90;;;;;;;16.14;42.60;95041.34;5036837;28;20025;-78
2021/11/01 13:38:34;;;;;;;27.13;16.90;;;;;;;16.43;41.25;95032.75;5040454;28;20113;-77
2021/11/01 13:40:59;;;;;;;27.33;17.90;;;;;;;16.47;41.46;95025.00;5039397;28;20036;-78
2021/11/01 13:43:29;;;;;;;21.25;14.45;;;;;;;16.49;41.48;95026.44;5027985;28;20373;-77
2021/11/01 13:45:57;;;;;;;25.45;16.42;;;;;;;16.39;41.57;95026.97;5043642;28;20037;-76
2021/11/01 13:48:31;;;;;;;23.08;16.10;;;;;;;16.48;42.03;95019.38;5048216;28;20330;-77
2021/11/01 13:51:08;;;;;;;28.75;14.90;;;;;;;16.61;40.97;95017.56;5047941;28;20017;-78
2021/11/01 13:53:47;;;;;;;24.23;14.60;;;;;;;16.53;41.02;95021.41;5049880;28;20549;-77
2021/11/01 13:56:20;;;;;;;19.83;13.98;;;;;;;16.51;40.79;95018.91;5047568;28;20078;-80
2021/11/01 13:59:09;;;;;;;25.38;17.05;;;;;;;16.61;40.75;95015.69;5031241;28;20021;-76
2021/11/01 14:12:48;;;;;;;23.13;14.45;;;;;;;16.54;40.83;95017.66;5042623;28;20036;-78
2021/11/01 14:15:32;;;;;;;23.83;14.98;;;;;;;16.36;40.97;95021.16;5044972;28;20025;-80
2021/11/01 14:54:52;;;;;;;21.75;14.18;;;;;;;15.13;44.02;95015.84;5040880;28;20071;-79
2021/11/01 15:06:49;;;;;;;35.45;19.00;;;;;;;14.24;46.35;95003.66;5044923;28;20052;-79
2021/11/01 15:35:47;;;;;;;39.90;20.80;;;;;;;13.42;49.63;94997.47;5039891;28;20032;-79
2021/11/01 16:18:45;;;;;;;54.80;29.65;;;;;;;12.33;53.74;95006.22;5027569;28;20045;-79
2021/11/01 16:21:11;;;;;;;55.70;28.88;;;;;;;12.31;53.73;95008.28;5043483;28;20033;-78
2021/11/01 16:23:37;;;;;;;71.43;35.95;;;;;;;12.35;53.71;95006.84;5044192;28;20553;-79
2021/11/01 16:26:15;;;;;;;63.17;36.03;;;;;;;12.35;53.67;95007.69;5044895;28;20049;-79
2021/11/01 16:28:41;;;;;;;63.28;36.10;;;;;;;12.32;53.44;95004.53;5045910;28;20112;-78
2021/11/01 16:31:28;;;;;;;65.13;35.08;;;;;;;12.28;53.60;95009.50;5044348;28;20037;-80
2021/11/01 16:33:59;;;;;;;64.75;34.38;;;;;;;12.18;53.94;95011.72;5032270;28;20025;-78
2021/11/01 16:39:13;;;;;;;85.18;37.35;;;;;;;11.92;52.27;95011.31;5043538;28;20029;-78
2021/11/01 16:41:41;;;;;;;77.78;36.55;;;;;;;11.67;53.14;95009.03;5044897;28;20071;-79
2021/11/01 16:44:17;;;;;;;70.00;32.97;;;;;;;11.52;54.16;95005.63;5044161;28;20017;-79
2021/11/01 16:46:43;;;;;;;64.32;29.88;;;;;;;11.41;54.60;95010.50;5044511;28;20115;-78
2021/11/01 16:49:10;;;;;;;76.60;31.63;;;;;;;11.34;55.42;94999.69;5034099;28;20107;-80
2021/11/01 16:51:36;;;;;;;52.40;27.05;;;;;;;11.39;54.97;95012.53;5009941;28;20063;-78
2021/11/01 16:54:03;;;;;;;60.92;30.27;;;;;;;11.37;54.77;95014.59;5040517;28;20633;-78
2021/11/01 16:59:08;;;;;;;65.50;33.70;;;;;;;11.23;55.46;95019.00;5036358;28;20121;-80
2021/11/01 17:01:34;;;;;;;70.50;30.05;;;;;;;11.12;56.09;95025.72;5034051;28;20024;-80
2021/11/01 17:04:06;;;;;;;44.20;24.88;;;;;;;11.08;55.66;95024.41;5036564;28;20017;-77
2021/11/01 17:22:33;;;;;;;67.85;32.35;;;;;;;10.62;56.08;95040.59;5044918;28;20457;-78
2021/11/01 17:25:45;;;;;;;57.27;30.70;;;;;;;10.55;56.65;95047.75;5043276;28;20056;-78
2021/11/01 17:30:53;;;;;;;62.03;29.65;;;;;;;10.30;57.57;95053.34;5020257;28;20518;-78
2021/11/01 18:41:59;;;;;;;71.05;35.67;;;;;;;9.34;58.27;95094.88;5046344;28;20099;-78
2021/11/01 18:44:56;;;;;;;71.50;34.90;;;;;;;9.19;58.68;95087.63;5045917;28;20029;-79
2021/11/01 18:52:49;;;;;;;62.25;33.20;;;;;;;8.83;58.68;95104.19;5046508;28;20505;-78
2021/11/01 18:55:15;;;;;;;63.35;33.55;;;;;;;8.82;58.88;95108.72;5025706;28;20500;-78
2021/11/01 18:57:41;;;;;;;63.80;33.13;;;;;;;8.70;59.09;95094.91;5027281;28;20753;-78
2021/11/01 19:00:08;;;;;;;63.53;32.25;;;;;;;8.66;59.73;95104.25;5028940;28;20029;-78
2021/11/01 19:02:39;;;;;;;55.85;30.35;;;;;;;8.69;59.33;95097.75;5027597;28;20036;-78
2021/11/01 21:26:58;;;;;;;65.75;34.45;;;;;;;6.44;63.63;95082.50;5034320;28;20426;-78
2021/11/01 21:29:24;;;;;;;72.10;36.47;;;;;;;6.41;63.87;95072.16;5033534;28;20072;-77
2021/11/01 21:31:49;;;;;;;74.88;37.45;;;;;;;6.39;64.30;95069.66;5018485;28;20430;-77
2021/11/01 21:34:26;;;;;;;78.00;35.55;;;;;;;6.23;64.48;95065.09;5032949;28;20770;-77
2021/11/01 21:36:52;;;;;;;68.38;35.80;;;;;;;6.19;64.72;95066.38;5033857;28;20025;-77
2021/11/01 21:39:17;;;;;;;73.25;35.85;;;;;;;6.20;64.87;95060.09;5033241;28;20028;-77
2021/11/01 21:41:43;;;;;;;77.93;37.35;;;;;;;6.17;63.96;95057.75;5016866;28;20048;-77
2021/11/01 21:44:08;;;;;;;77.30;36.13;;;;;;;6.27;63.44;95061.09;5031988;28;20040;-77
2021/11/01 21:46:33;;;;;;;59.72;35.00;;;;;;;6.15;64.04;95046.41;5033688;28;20029;-77
2021/11/01 21:48:59;;;;;;;77.25;35.03;;;;;;;6.23;63.95;95050.94;5032983;28;20026;-76
2021/11/01 21:51:25;;;;;;;71.15;34.50;;;;;;;6.22;63.99;95041.28;5033699;28;20017;-77
2021/11/01 21:54:21;;;;;;;79.47;39.08;;;;;;;6.14;65.02;95034.91;5035766;28;20029;-77
2021/11/01 21:56:36;;;;;;;72.68;36.08;;;;;;;6.14;64.92;95037.56;5033592;28;20545;-77
2021/11/01 22:18:23;;;;;;;76.38;37.10;;;;;;;5.75;66.02;95019.38;5035494;28;20431;-77
2021/11/01 22:20:45;;;;;;;75.13;38.08;;;;;;;5.77;66.16;95023.53;5029100;28;20102;-79
2021/11/01 22:58:02;;;;;;;63.08;32.15;;;;;;;5.41;63.84;94995.22;5038198;28;20021;-78
2021/11/01 23:00:37;;;;;;;59.08;32.40;;;;;;;5.35;64.44;94992.34;5025945;28;20090;-78
2021/11/01 23:03:08;;;;;;;63.78;31.95;;;;;;;5.29;65.77;94991.97;5037869;28;20021;-77
2021/11/01 23:05:53;;;;;;;58.15;30.80;;;;;;;5.36;62.51;94986.03;5028024;28;20114;-77
2021/11/01 23:32:55;;;;;;;119.28;50.55;;;;;;;4.73;70.40;94957.66;5036870;28;20109;-76
2021/11/01 23:35:21;;;;;;;124.25;52.25;;;;;;;4.76;69.70;94951.19;5035785;28;20017;-76
2021/11/01 23:37:46;;;;;;;111.35;47.03;;;;;;;4.86;69.85;94953.75;5036248;28;20033;-77
2021/11/01 23:40:12;;;;;;;90.03;43.38;;;;;;;4.85;68.41;94942.31;5033741;28;20029;-77
2021/11/01 23:42:37;;;;;;;102.88;42.65;;;;;;;4.91;67.89;94946.16;5018900;28;20021;-76
2021/11/01 23:45:03;;;;;;;84.53;39.33;;;;;;;4.92;66.13;94953.13;5037544;28;20021;-77
2021/11/01 23:47:28;;;;;;;73.90;36.10;;;;;;;4.82;65.88;94946.09;5015631;28;20041;-77
2021/11/01 23:49:54;;;;;;;76.75;36.10;;;;;;;4.85;65.00;94942.31;5034930;28;20033;-78
2021/11/01 23:52:22;;;;;;;116.65;46.67;;;;;;;4.76;66.73;94930.78;5035757;28;20028;-77
2021/11/01 23:54:48;;;;;;;94.78;41.53;;;;;;;4.76;67.16;94935.25;5034541;28;20040;-77